createdAt,value
2022-11-04T00:00:03.090Z,994.6
2022-11-04T00:30:02.665Z,994.9
2022-11-04T00:45:03.107Z,995.1
2022-11-04T01:00:02.530Z,995.6
2022-11-04T01:15:02.980Z,995.6
2022-11-04T01:30:02.538Z,995.8
2022-11-04T01:45:02.838Z,995.9
2022-11-04T02:00:02.280Z,996.2
2022-11-04T02:15:02.728Z,996.6
2022-11-04T02:30:03.169Z,996.6
2022-11-04T02:45:02.606Z,996.6
2022-11-04T03:00:03.034Z,996.7
2022-11-04T03:15:02.575Z,996.7
2022-11-04T03:30:02.963Z,996.9
2022-11-04T03:45:02.541Z,997.2
2022-11-04T04:00:02.907Z,997.4
2022-11-04T04:15:02.205Z,997.7
2022-11-04T04:30:02.674Z,997.7
2022-11-04T04:45:03.119Z,997.7
2022-11-04T05:00:02.584Z,998.1
2022-11-04T05:15:02.993Z,998.2
2022-11-04T05:30:02.717Z,998.5
2022-11-04T05:45:02.869Z,998.7
2022-11-04T06:00:02.312Z,998.8
2022-11-04T06:15:02.734Z,999.0
2022-11-04T06:30:03.209Z,999.2
2022-11-04T06:45:02.637Z,999.5
2022-11-04T07:00:03.093Z,999.6
2022-11-04T07:15:02.616Z,999.9
2022-11-04T07:30:02.960Z,1000.2
2022-11-04T07:45:02.592Z,1000.3
2022-11-04T08:00:02.811Z,1000.3
2022-11-04T08:15:03.259Z,1000.6
2022-11-04T08:30:02.701Z,1000.8
2022-11-04T08:45:03.139Z,1000.7
2022-11-04T09:00:02.612Z,1001.0
2022-11-04T09:15:03.019Z,1001.1
2022-11-04T09:30:02.628Z,1001.1
2022-11-04T09:45:22.070Z,1001.1
2022-11-04T10:00:02.316Z,1001.2
2022-11-04T10:15:02.742Z,1001.3
2022-11-04T10:30:03.190Z,1001.3
2022-11-04T10:45:02.662Z,1001.4
2022-11-04T11:00:03.065Z,1001.6
2022-11-04T11:15:02.656Z,1001.8
2022-11-04T11:30:02.939Z,1001.8
2022-11-04T11:45:02.392Z,1001.8
2022-11-04T12:15:02.263Z,1001.8
2022-11-04T12:30:02.717Z,1001.9
2022-11-04T12:45:03.171Z,1001.9
2022-11-04T13:00:02.689Z,1002.0
2022-11-04T13:15:03.046Z,1002.0
2022-11-04T13:30:02.691Z,1002.1
2022-11-04T13:45:02.913Z,1002.4
2022-11-04T14:00:02.366Z,1002.7
2022-11-04T14:15:02.804Z,1002.9
2022-11-04T14:30:02.231Z,1003.1
2022-11-04T14:45:02.711Z,1003.3
2022-11-04T15:00:03.129Z,1003.5
2022-11-04T15:15:02.707Z,1003.7
2022-11-04T15:30:03.150Z,1003.9
2022-11-04T15:45:02.447Z,1004.2
2022-11-04T16:00:02.960Z,1004.3
2022-11-04T16:15:02.335Z,1004.3
2022-11-04T16:30:02.760Z,1004.6
2022-11-04T16:45:03.181Z,1004.7
2022-11-04T17:00:02.725Z,1004.9
2022-11-04T17:15:03.086Z,1005.2
2022-11-04T17:30:02.735Z,1005.3
2022-11-04T17:45:02.967Z,1005.4
2022-11-04T18:00:02.397Z,1005.5
2022-11-04T18:15:02.873Z,1005.7
2022-11-04T18:30:02.281Z,1005.9
2022-11-04T18:45:02.738Z,1005.8
2022-11-04T19:00:03.176Z,1006.1
2022-11-04T19:15:02.744Z,1006.2
2022-11-04T19:30:03.060Z,1006.3
2022-11-04T19:45:02.669Z,1006.3
2022-11-04T20:00:02.950Z,1006.5
2022-11-04T20:15:02.356Z,1006.7
2022-11-04T20:30:02.823Z,1006.8
2022-11-04T20:45:03.255Z,1007.0
2022-11-04T21:00:02.784Z,1007.3
2022-11-04T21:15:03.141Z,1007.5
2022-11-04T21:30:02.768Z,1007.8
2022-11-04T21:45:02.998Z,1007.9
2022-11-04T22:00:02.441Z,1008.1
2022-11-04T22:15:02.919Z,1008.3
2022-11-04T22:30:02.321Z,1008.3
2022-11-04T22:45:02.808Z,1008.4
2022-11-04T23:00:02.215Z,1008.6
2022-11-04T23:15:02.809Z,1008.6
2022-11-04T23:30:02.114Z,1008.7
2022-11-04T23:45:02.556Z,1008.7
